sensor_id;sensor_type;location;lat;lon;timestamp;P1;durP1;ratioP1;P2;durP2;ratioP2
26908;SDS011;14477;51.038;4.588;2022-08-30T00:00:07;3.08;;;1.60;;
26908;SDS011;14477;51.038;4.588;2022-08-30T00:02:57;3.57;;;1.73;;
26908;SDS011;14477;51.038;4.588;2022-08-30T00:05:25;3.25;;;2.00;;
26908;SDS011;14477;51.038;4.588;2022-08-30T00:07:52;3.70;;;1.77;;
26908;SDS011;14477;51.038;4.588;2022-08-30T00:10:18;3.75;;;1.98;;
26908;SDS011;14477;51.038;4.588;2022-08-30T00:12:44;2.50;;;1.47;;
26908;SDS011;14477;51.038;4.588;2022-08-30T00:15:10;3.80;;;2.00;;
26908;SDS011;14477;51.038;4.588;2022-08-30T00:17:37;4.05;;;1.83;;
26908;SDS011;14477;51.038;4.588;2022-08-30T00:20:04;4.13;;;1.90;;
26908;SDS011;14477;51.038;4.588;2022-08-30T00:22:32;4.22;;;2.00;;
26908;SDS011;14477;51.038;4.588;2022-08-30T00:24:59;4.13;;;1.80;;
26908;SDS011;14477;51.038;4.588;2022-08-30T00:27:26;3.83;;;2.00;;
26908;SDS011;14477;51.038;4.588;2022-08-30T00:29:52;2.55;;;1.70;;
26908;SDS011;14477;51.038;4.588;2022-08-30T00:32:18;4.38;;;1.90;;
26908;SDS011;14477;51.038;4.588;2022-08-30T00:34:46;3.40;;;1.60;;
26908;SDS011;14477;51.038;4.588;2022-08-30T00:37:12;4.25;;;1.77;;
26908;SDS011;14477;51.038;4.588;2022-08-30T00:39:38;5.40;;;1.98;;
26908;SDS011;14477;51.038;4.588;2022-08-30T00:42:04;3.90;;;1.90;;
26908;SDS011;14477;51.038;4.588;2022-08-30T00:44:30;3.33;;;1.80;;
26908;SDS011;14477;51.038;4.588;2022-08-30T00:46:56;3.08;;;1.90;;
26908;SDS011;14477;51.038;4.588;2022-08-30T00:49:22;2.75;;;1.73;;
26908;SDS011;14477;51.038;4.588;2022-08-30T00:51:49;3.30;;;1.93;;
26908;SDS011;14477;51.038;4.588;2022-08-30T00:54:16;3.50;;;1.80;;
26908;SDS011;14477;51.038;4.588;2022-08-30T00:56:43;3.03;;;1.75;;
26908;SDS011;14477;51.038;4.588;2022-08-30T00:59:10;3.42;;;1.48;;
26908;SDS011;14477;51.038;4.588;2022-08-30T01:01:36;2.37;;;1.83;;
26908;SDS011;14477;51.038;4.588;2022-08-30T01:04:03;3.35;;;1.88;;
26908;SDS011;14477;51.038;4.588;2022-08-30T01:06:30;3.63;;;2.03;;
26908;SDS011;14477;51.038;4.588;2022-08-30T01:08:58;4.55;;;2.10;;
26908;SDS011;14477;51.038;4.588;2022-08-30T01:11:25;4.30;;;1.90;;
26908;SDS011;14477;51.038;4.588;2022-08-30T01:13:52;4.27;;;2.10;;
26908;SDS011;14477;51.038;4.588;2022-08-30T01:16:20;4.28;;;1.95;;
26908;SDS011;14477;51.038;4.588;2022-08-30T01:18:47;2.90;;;2.00;;
26908;SDS011;14477;51.038;4.588;2022-08-30T01:23:52;4.53;;;2.05;;
26908;SDS011;14477;51.038;4.588;2022-08-30T01:26:20;3.83;;;2.00;;
26908;SDS011;14477;51.038;4.588;2022-08-30T01:28:47;4.65;;;2.28;;
26908;SDS011;14477;51.038;4.588;2022-08-30T01:31:17;3.65;;;2.00;;
26908;SDS011;14477;51.038;4.588;2022-08-30T01:33:43;3.15;;;2.10;;
26908;SDS011;14477;51.038;4.588;2022-08-30T01:36:10;4.23;;;2.07;;
26908;SDS011;14477;51.038;4.588;2022-08-30T01:38:48;3.30;;;1.98;;
26908;SDS011;14477;51.038;4.588;2022-08-30T01:41:29;4.25;;;2.00;;
26908;SDS011;14477;51.038;4.588;2022-08-30T01:43:58;3.88;;;2.10;;
26908;SDS011;14477;51.038;4.588;2022-08-30T01:46:27;3.45;;;2.13;;
26908;SDS011;14477;51.038;4.588;2022-08-30T01:49:00;3.67;;;1.90;;
26908;SDS011;14477;51.038;4.588;2022-08-30T01:51:29;4.07;;;2.17;;
26908;SDS011;14477;51.038;4.588;2022-08-30T01:53:56;3.50;;;2.10;;
26908;SDS011;14477;51.038;4.588;2022-08-30T01:56:23;3.22;;;2.03;;
26908;SDS011;14477;51.038;4.588;2022-08-30T01:58:50;2.97;;;1.77;;
26908;SDS011;14477;51.038;4.588;2022-08-30T02:01:18;4.20;;;2.13;;
26908;SDS011;14477;51.038;4.588;2022-08-30T02:03:47;3.45;;;2.00;;
26908;SDS011;14477;51.038;4.588;2022-08-30T02:06:15;2.92;;;1.95;;
26908;SDS011;14477;51.038;4.588;2022-08-30T02:08:42;4.50;;;2.30;;
26908;SDS011;14477;51.038;4.588;2022-08-30T02:11:09;3.75;;;2.08;;
26908;SDS011;14477;51.038;4.588;2022-08-30T02:13:36;3.40;;;2.07;;
26908;SDS011;14477;51.038;4.588;2022-08-30T02:16:05;3.63;;;2.10;;
26908;SDS011;14477;51.038;4.588;2022-08-30T02:18:33;2.72;;;1.88;;
26908;SDS011;14477;51.038;4.588;2022-08-30T02:21:00;4.45;;;2.20;;
26908;SDS011;14477;51.038;4.588;2022-08-30T02:23:26;4.57;;;2.00;;
26908;SDS011;14477;51.038;4.588;2022-08-30T02:25:52;5.57;;;1.77;;
26908;SDS011;14477;51.038;4.588;2022-08-30T02:28:19;3.45;;;1.92;;
26908;SDS011;14477;51.038;4.588;2022-08-30T02:30:45;3.50;;;1.73;;
26908;SDS011;14477;51.038;4.588;2022-08-30T02:33:12;3.30;;;1.88;;
26908;SDS011;14477;51.038;4.588;2022-08-30T02:35:38;3.08;;;1.85;;
26908;SDS011;14477;51.038;4.588;2022-08-30T02:38:05;3.17;;;1.87;;
26908;SDS011;14477;51.038;4.588;2022-08-30T02:40:31;3.72;;;1.90;;
26908;SDS011;14477;51.038;4.588;2022-08-30T02:42:58;3.33;;;1.70;;
26908;SDS011;14477;51.038;4.588;2022-08-30T02:45:23;3.23;;;1.80;;
26908;SDS011;14477;51.038;4.588;2022-08-30T02:47:50;3.88;;;1.88;;
26908;SDS011;14477;51.038;4.588;2022-08-30T02:50:16;3.22;;;1.88;;
26908;SDS011;14477;51.038;4.588;2022-08-30T02:52:42;3.00;;;2.05;;
26908;SDS011;14477;51.038;4.588;2022-08-30T02:55:08;4.63;;;1.93;;
26908;SDS011;14477;51.038;4.588;2022-08-30T02:57:34;2.95;;;1.70;;
26908;SDS011;14477;51.038;4.588;2022-08-30T03:00:00;3.50;;;1.77;;
26908;SDS011;14477;51.038;4.588;2022-08-30T03:02:26;3.63;;;1.90;;
26908;SDS011;14477;51.038;4.588;2022-08-30T03:04:53;5.13;;;1.90;;
26908;SDS011;14477;51.038;4.588;2022-08-30T03:07:18;3.15;;;1.65;;
26908;SDS011;14477;51.038;4.588;2022-08-30T03:09:44;4.20;;;1.83;;
26908;SDS011;14477;51.038;4.588;2022-08-30T03:12:10;2.95;;;1.70;;
26908;SDS011;14477;51.038;4.588;2022-08-30T03:14:37;3.20;;;1.70;;
26908;SDS011;14477;51.038;4.588;2022-08-30T03:17:04;4.15;;;2.00;;
26908;SDS011;14477;51.038;4.588;2022-08-30T03:19:32;3.70;;;1.92;;
26908;SDS011;14477;51.038;4.588;2022-08-30T03:21:58;3.90;;;2.08;;
26908;SDS011;14477;51.038;4.588;2022-08-30T03:24:24;3.20;;;1.90;;
26908;SDS011;14477;51.038;4.588;2022-08-30T03:26:50;2.47;;;1.75;;
26908;SDS011;14477;51.038;4.588;2022-08-30T03:29:16;2.65;;;1.70;;
26908;SDS011;14477;51.038;4.588;2022-08-30T03:31:42;2.30;;;1.70;;
26908;SDS011;14477;51.038;4.588;2022-08-30T03:34:08;3.05;;;1.70;;
26908;SDS011;14477;51.038;4.588;2022-08-30T03:36:35;4.63;;;1.88;;
26908;SDS011;14477;51.038;4.588;2022-08-30T03:39:02;4.80;;;2.00;;
26908;SDS011;14477;51.038;4.588;2022-08-30T03:41:29;4.35;;;1.88;;
26908;SDS011;14477;51.038;4.588;2022-08-30T03:43:56;3.13;;;1.77;;
26908;SDS011;14477;51.038;4.588;2022-08-30T03:46:23;3.35;;;2.05;;
26908;SDS011;14477;51.038;4.588;2022-08-30T03:48:49;3.47;;;2.22;;
26908;SDS011;14477;51.038;4.588;2022-08-30T03:51:16;3.60;;;2.10;;
26908;SDS011;14477;51.038;4.588;2022-08-30T03:53:42;5.03;;;2.00;;
26908;SDS011;14477;51.038;4.588;2022-08-30T03:56:09;2.33;;;1.77;;
26908;SDS011;14477;51.038;4.588;2022-08-30T03:58:35;5.05;;;2.08;;
26908;SDS011;14477;51.038;4.588;2022-08-30T04:01:00;2.72;;;1.67;;
26908;SDS011;14477;51.038;4.588;2022-08-30T04:03:26;6.27;;;1.97;;
26908;SDS011;14477;51.038;4.588;2022-08-30T04:05:53;3.60;;;2.05;;
26908;SDS011;14477;51.038;4.588;2022-08-30T04:08:20;3.63;;;1.90;;
26908;SDS011;14477;51.038;4.588;2022-08-30T04:10:46;3.58;;;2.30;;
26908;SDS011;14477;51.038;4.588;2022-08-30T04:13:13;5.57;;;2.40;;
26908;SDS011;14477;51.038;4.588;2022-08-30T04:15:39;4.32;;;2.30;;
26908;SDS011;14477;51.038;4.588;2022-08-30T04:18:05;5.75;;;2.13;;
26908;SDS011;14477;51.038;4.588;2022-08-30T04:20:30;4.88;;;2.40;;
26908;SDS011;14477;51.038;4.588;2022-08-30T04:22:56;2.73;;;2.00;;
26908;SDS011;14477;51.038;4.588;2022-08-30T04:25:22;3.75;;;2.10;;
26908;SDS011;14477;51.038;4.588;2022-08-30T04:27:48;3.30;;;2.13;;
26908;SDS011;14477;51.038;4.588;2022-08-30T04:30:14;2.97;;;1.90;;
26908;SDS011;14477;51.038;4.588;2022-08-30T04:32:42;2.95;;;1.90;;
26908;SDS011;14477;51.038;4.588;2022-08-30T04:35:09;3.45;;;1.92;;
26908;SDS011;14477;51.038;4.588;2022-08-30T04:37:36;4.20;;;2.17;;
26908;SDS011;14477;51.038;4.588;2022-08-30T04:40:02;3.60;;;1.90;;
26908;SDS011;14477;51.038;4.588;2022-08-30T04:42:30;3.15;;;1.88;;
26908;SDS011;14477;51.038;4.588;2022-08-30T04:44:58;3.03;;;1.92;;
26908;SDS011;14477;51.038;4.588;2022-08-30T04:47:26;3.70;;;1.98;;
26908;SDS011;14477;51.038;4.588;2022-08-30T04:49:52;3.00;;;1.87;;
26908;SDS011;14477;51.038;4.588;2022-08-30T04:52:18;3.53;;;2.10;;
26908;SDS011;14477;51.038;4.588;2022-08-30T04:54:44;3.10;;;1.92;;
26908;SDS011;14477;51.038;4.588;2022-08-30T04:57:09;3.07;;;2.10;;
26908;SDS011;14477;51.038;4.588;2022-08-30T04:59:36;3.80;;;2.17;;
26908;SDS011;14477;51.038;4.588;2022-08-30T05:02:03;3.60;;;2.10;;
26908;SDS011;14477;51.038;4.588;2022-08-30T05:04:29;2.90;;;2.10;;
26908;SDS011;14477;51.038;4.588;2022-08-30T05:06:55;3.45;;;2.40;;
26908;SDS011;14477;51.038;4.588;2022-08-30T05:09:20;3.20;;;1.90;;
26908;SDS011;14477;51.038;4.588;2022-08-30T05:11:46;2.72;;;1.80;;
26908;SDS011;14477;51.038;4.588;2022-08-30T05:14:12;3.50;;;2.17;;
26908;SDS011;14477;51.038;4.588;2022-08-30T05:16:39;3.88;;;2.25;;
26908;SDS011;14477;51.038;4.588;2022-08-30T05:19:05;3.27;;;1.93;;
26908;SDS011;14477;51.038;4.588;2022-08-30T05:21:32;3.05;;;2.00;;
26908;SDS011;14477;51.038;4.588;2022-08-30T05:23:58;3.90;;;2.08;;
26908;SDS011;14477;51.038;4.588;2022-08-30T05:26:29;3.20;;;2.17;;
26908;SDS011;14477;51.038;4.588;2022-08-30T05:28:56;2.90;;;2.00;;
26908;SDS011;14477;51.038;4.588;2022-08-30T05:31:26;4.03;;;2.00;;
26908;SDS011;14477;51.038;4.588;2022-08-30T05:33:54;3.67;;;1.90;;
26908;SDS011;14477;51.038;4.588;2022-08-30T05:36:22;4.80;;;2.30;;
26908;SDS011;14477;51.038;4.588;2022-08-30T05:38:49;3.55;;;2.10;;
26908;SDS011;14477;51.038;4.588;2022-08-30T05:41:17;3.87;;;2.00;;
26908;SDS011;14477;51.038;4.588;2022-08-30T05:43:44;3.80;;;2.10;;
26908;SDS011;14477;51.038;4.588;2022-08-30T05:46:10;3.35;;;2.10;;
26908;SDS011;14477;51.038;4.588;2022-08-30T05:48:38;3.30;;;2.33;;
26908;SDS011;14477;51.038;4.588;2022-08-30T05:51:06;4.73;;;2.20;;
26908;SDS011;14477;51.038;4.588;2022-08-30T05:53:34;4.80;;;2.42;;
26908;SDS011;14477;51.038;4.588;2022-08-30T05:56:01;3.05;;;2.15;;
26908;SDS011;14477;51.038;4.588;2022-08-30T05:58:28;4.03;;;2.33;;
26908;SDS011;14477;51.038;4.588;2022-08-30T06:00:55;3.40;;;2.30;;
26908;SDS011;14477;51.038;4.588;2022-08-30T06:03:21;5.07;;;2.57;;
26908;SDS011;14477;51.038;4.588;2022-08-30T06:05:47;3.53;;;2.30;;
26908;SDS011;14477;51.038;4.588;2022-08-30T06:08:12;4.80;;;2.38;;
26908;SDS011;14477;51.038;4.588;2022-08-30T06:10:38;3.60;;;2.33;;
26908;SDS011;14477;51.038;4.588;2022-08-30T06:13:04;3.70;;;2.60;;
26908;SDS011;14477;51.038;4.588;2022-08-30T06:15:30;5.13;;;2.10;;
26908;SDS011;14477;51.038;4.588;2022-08-30T06:17:56;5.03;;;2.50;;
26908;SDS011;14477;51.038;4.588;2022-08-30T06:20:21;3.55;;;2.47;;
26908;SDS011;14477;51.038;4.588;2022-08-30T06:22:47;4.43;;;2.43;;
26908;SDS011;14477;51.038;4.588;2022-08-30T06:25:13;5.22;;;2.45;;
26908;SDS011;14477;51.038;4.588;2022-08-30T06:27:40;3.28;;;2.45;;
26908;SDS011;14477;51.038;4.588;2022-08-30T06:30:07;4.35;;;2.80;;
26908;SDS011;14477;51.038;4.588;2022-08-30T06:32:35;4.07;;;2.50;;
26908;SDS011;14477;51.038;4.588;2022-08-30T06:35:03;5.85;;;2.55;;
26908;SDS011;14477;51.038;4.588;2022-08-30T06:37:30;3.47;;;2.50;;
26908;SDS011;14477;51.038;4.588;2022-08-30T06:39:57;3.63;;;2.33;;
26908;SDS011;14477;51.038;4.588;2022-08-30T06:42:25;4.30;;;2.53;;
26908;SDS011;14477;51.038;4.588;2022-08-30T06:45:02;5.30;;;2.77;;
26908;SDS011;14477;51.038;4.588;2022-08-30T06:47:29;4.20;;;2.55;;
26908;SDS011;14477;51.038;4.588;2022-08-30T06:49:54;4.32;;;2.60;;
26908;SDS011;14477;51.038;4.588;2022-08-30T06:52:22;3.63;;;2.47;;
26908;SDS011;14477;51.038;4.588;2022-08-30T06:54:47;4.68;;;2.70;;
26908;SDS011;14477;51.038;4.588;2022-08-30T06:57:13;4.47;;;2.60;;
26908;SDS011;14477;51.038;4.588;2022-08-30T06:59:39;4.00;;;2.40;;
26908;SDS011;14477;51.038;4.588;2022-08-30T07:02:05;4.13;;;2.67;;
26908;SDS011;14477;51.038;4.588;2022-08-30T07:04:32;4.00;;;2.72;;
26908;SDS011;14477;51.038;4.588;2022-08-30T07:06:58;3.72;;;3.03;;
26908;SDS011;14477;51.038;4.588;2022-08-30T07:09:24;4.38;;;2.30;;
26908;SDS011;14477;51.038;4.588;2022-08-30T07:11:50;4.72;;;2.42;;
26908;SDS011;14477;51.038;4.588;2022-08-30T07:14:16;5.07;;;2.77;;
26908;SDS011;14477;51.038;4.588;2022-08-30T07:16:43;3.70;;;2.58;;
26908;SDS011;14477;51.038;4.588;2022-08-30T07:19:09;4.65;;;2.78;;
26908;SDS011;14477;51.038;4.588;2022-08-30T07:21:36;4.22;;;2.72;;
26908;SDS011;14477;51.038;4.588;2022-08-30T07:24:05;3.78;;;2.50;;
26908;SDS011;14477;51.038;4.588;2022-08-30T07:26:33;3.30;;;2.70;;
26908;SDS011;14477;51.038;4.588;2022-08-30T07:29:03;3.80;;;2.83;;
26908;SDS011;14477;51.038;4.588;2022-08-30T07:31:30;4.28;;;2.55;;
26908;SDS011;14477;51.038;4.588;2022-08-30T07:33:58;5.32;;;2.60;;
26908;SDS011;14477;51.038;4.588;2022-08-30T07:36:24;3.83;;;2.63;;
26908;SDS011;14477;51.038;4.588;2022-08-30T07:38:50;4.50;;;3.00;;
26908;SDS011;14477;51.038;4.588;2022-08-30T07:41:17;3.90;;;2.67;;
26908;SDS011;14477;51.038;4.588;2022-08-30T07:43:45;4.15;;;2.58;;
26908;SDS011;14477;51.038;4.588;2022-08-30T07:46:11;5.10;;;2.72;;
26908;SDS011;14477;51.038;4.588;2022-08-30T07:48:37;4.22;;;2.63;;
26908;SDS011;14477;51.038;4.588;2022-08-30T07:51:03;4.90;;;2.90;;
26908;SDS011;14477;51.038;4.588;2022-08-30T07:53:33;3.20;;;2.47;;
26908;SDS011;14477;51.038;4.588;2022-08-30T07:55:59;4.28;;;2.78;;
26908;SDS011;14477;51.038;4.588;2022-08-30T07:58:25;4.87;;;2.77;;
26908;SDS011;14477;51.038;4.588;2022-08-30T08:00:50;3.38;;;2.60;;
26908;SDS011;14477;51.038;4.588;2022-08-30T08:03:16;3.07;;;2.50;;
26908;SDS011;14477;51.038;4.588;2022-08-30T08:05:43;3.75;;;2.60;;
26908;SDS011;14477;51.038;4.588;2022-08-30T08:08:10;5.47;;;2.60;;
26908;SDS011;14477;51.038;4.588;2022-08-30T08:10:38;4.10;;;2.70;;
26908;SDS011;14477;51.038;4.588;2022-08-30T08:13:05;3.60;;;2.45;;
26908;SDS011;14477;51.038;4.588;2022-08-30T08:15:31;3.45;;;2.60;;
26908;SDS011;14477;51.038;4.588;2022-08-30T08:17:57;4.23;;;2.60;;
26908;SDS011;14477;51.038;4.588;2022-08-30T08:20:23;4.53;;;2.53;;
26908;SDS011;14477;51.038;4.588;2022-08-30T08:22:50;4.43;;;2.60;;
26908;SDS011;14477;51.038;4.588;2022-08-30T08:25:16;3.37;;;2.40;;
26908;SDS011;14477;51.038;4.588;2022-08-30T08:27:42;3.97;;;2.40;;
26908;SDS011;14477;51.038;4.588;2022-08-30T08:30:10;4.13;;;2.20;;
26908;SDS011;14477;51.038;4.588;2022-08-30T08:32:36;2.90;;;2.40;;
26908;SDS011;14477;51.038;4.588;2022-08-30T08:35:02;4.13;;;2.60;;
26908;SDS011;14477;51.038;4.588;2022-08-30T08:37:28;3.83;;;2.72;;
26908;SDS011;14477;51.038;4.588;2022-08-30T08:39:54;4.03;;;2.50;;
26908;SDS011;14477;51.038;4.588;2022-08-30T08:42:23;2.60;;;2.13;;
26908;SDS011;14477;51.038;4.588;2022-08-30T08:45:05;2.78;;;1.98;;
26908;SDS011;14477;51.038;4.588;2022-08-30T08:47:39;3.35;;;2.30;;
26908;SDS011;14477;51.038;4.588;2022-08-30T08:50:20;3.53;;;1.90;;
26908;SDS011;14477;51.038;4.588;2022-08-30T08:55:48;3.42;;;2.20;;
26908;SDS011;14477;51.038;4.588;2022-08-30T08:58:20;2.85;;;2.22;;
26908;SDS011;14477;51.038;4.588;2022-08-30T09:00:48;2.90;;;1.95;;
26908;SDS011;14477;51.038;4.588;2022-08-30T09:03:15;3.30;;;1.90;;
26908;SDS011;14477;51.038;4.588;2022-08-30T09:05:44;3.50;;;1.93;;
26908;SDS011;14477;51.038;4.588;2022-08-30T09:08:13;4.10;;;1.98;;
26908;SDS011;14477;51.038;4.588;2022-08-30T09:10:42;3.45;;;1.92;;
26908;SDS011;14477;51.038;4.588;2022-08-30T09:13:23;2.53;;;1.80;;
26908;SDS011;14477;51.038;4.588;2022-08-30T09:15:50;2.88;;;1.75;;
26908;SDS011;14477;51.038;4.588;2022-08-30T09:18:17;3.03;;;2.00;;
26908;SDS011;14477;51.038;4.588;2022-08-30T09:20:44;2.85;;;1.60;;
26908;SDS011;14477;51.038;4.588;2022-08-30T09:28:27;3.63;;;2.00;;
26908;SDS011;14477;51.038;4.588;2022-08-30T09:31:15;3.38;;;1.80;;
26908;SDS011;14477;51.038;4.588;2022-08-30T09:36:51;3.05;;;2.20;;
26908;SDS011;14477;51.038;4.588;2022-08-30T09:39:25;2.27;;;1.70;;
26908;SDS011;14477;51.038;4.588;2022-08-30T09:42:09;2.58;;;1.73;;
26908;SDS011;14477;51.038;4.588;2022-08-30T09:44:37;3.08;;;1.67;;
26908;SDS011;14477;51.038;4.588;2022-08-30T09:47:03;2.47;;;1.73;;
26908;SDS011;14477;51.038;4.588;2022-08-30T09:49:32;2.70;;;1.80;;
26908;SDS011;14477;51.038;4.588;2022-08-30T09:54:32;4.65;;;2.13;;
26908;SDS011;14477;51.038;4.588;2022-08-30T09:57:06;2.35;;;1.70;;
26908;SDS011;14477;51.038;4.588;2022-08-30T10:00:04;2.58;;;1.83;;
26908;SDS011;14477;51.038;4.588;2022-08-30T10:11:28;2.28;;;1.70;;
26908;SDS011;14477;51.038;4.588;2022-08-30T10:24:43;2.67;;;1.83;;
26908;SDS011;14477;51.038;4.588;2022-08-30T10:27:22;2.78;;;1.70;;
26908;SDS011;14477;51.038;4.588;2022-08-30T10:29:56;3.17;;;2.20;;
26908;SDS011;14477;51.038;4.588;2022-08-30T10:37:41;2.67;;;1.80;;
26908;SDS011;14477;51.038;4.588;2022-08-30T10:40:14;3.60;;;1.63;;
26908;SDS011;14477;51.038;4.588;2022-08-30T10:43:12;2.25;;;1.55;;
26908;SDS011;14477;51.038;4.588;2022-08-30T10:45:59;2.03;;;1.57;;
26908;SDS011;14477;51.038;4.588;2022-08-30T10:48:35;4.32;;;1.60;;
26908;SDS011;14477;51.038;4.588;2022-08-30T10:51:08;3.42;;;1.50;;
26908;SDS011;14477;51.038;4.588;2022-08-30T10:56:22;2.13;;;1.50;;
26908;SDS011;14477;51.038;4.588;2022-08-30T10:58:51;3.77;;;1.70;;
26908;SDS011;14477;51.038;4.588;2022-08-30T11:04:03;3.35;;;1.80;;
26908;SDS011;14477;51.038;4.588;2022-08-30T11:06:56;2.35;;;1.83;;
26908;SDS011;14477;51.038;4.588;2022-08-30T11:09:40;2.35;;;1.77;;
26908;SDS011;14477;51.038;4.588;2022-08-30T11:12:34;2.57;;;1.93;;
26908;SDS011;14477;51.038;4.588;2022-08-30T11:15:10;3.25;;;1.85;;
26908;SDS011;14477;51.038;4.588;2022-08-30T11:20:32;3.33;;;1.80;;
26908;SDS011;14477;51.038;4.588;2022-08-30T11:23:12;2.10;;;1.63;;
26908;SDS011;14477;51.038;4.588;2022-08-30T11:31:05;2.83;;;2.17;;
26908;SDS011;14477;51.038;4.588;2022-08-30T11:36:09;1.92;;;1.50;;
26908;SDS011;14477;51.038;4.588;2022-08-30T11:41:13;2.95;;;1.90;;
26908;SDS011;14477;51.038;4.588;2022-08-30T11:46:45;3.20;;;1.90;;
26908;SDS011;14477;51.038;4.588;2022-08-30T12:02:53;2.70;;;1.77;;
26908;SDS011;14477;51.038;4.588;2022-08-30T12:18:40;3.00;;;1.73;;
26908;SDS011;14477;51.038;4.588;2022-08-30T12:23:47;3.28;;;1.70;;
26908;SDS011;14477;51.038;4.588;2022-08-30T12:28:48;1.83;;;1.60;;
26908;SDS011;14477;51.038;4.588;2022-08-30T12:31:20;1.70;;;1.60;;
26908;SDS011;14477;51.038;4.588;2022-08-30T12:33:52;2.10;;;1.67;;
26908;SDS011;14477;51.038;4.588;2022-08-30T12:36:40;3.03;;;1.60;;
26908;SDS011;14477;51.038;4.588;2022-08-30T12:39:18;2.33;;;1.77;;
26908;SDS011;14477;51.038;4.588;2022-08-30T12:41:46;1.70;;;1.47;;
26908;SDS011;14477;51.038;4.588;2022-08-30T12:44:19;2.40;;;1.60;;
26908;SDS011;14477;51.038;4.588;2022-08-30T12:46:48;3.45;;;2.13;;
26908;SDS011;14477;51.038;4.588;2022-08-30T12:49:18;2.88;;;1.58;;
26908;SDS011;14477;51.038;4.588;2022-08-30T12:51:46;2.07;;;1.50;;
26908;SDS011;14477;51.038;4.588;2022-08-30T12:54:13;3.15;;;1.35;;
26908;SDS011;14477;51.038;4.588;2022-08-30T12:57:00;1.60;;;1.50;;
26908;SDS011;14477;51.038;4.588;2022-08-30T13:04:43;3.40;;;1.53;;
26908;SDS011;14477;51.038;4.588;2022-08-30T13:07:21;2.35;;;1.20;;
26908;SDS011;14477;51.038;4.588;2022-08-30T13:10:15;1.55;;;1.40;;
26908;SDS011;14477;51.038;4.588;2022-08-30T13:13:02;1.73;;;1.52;;
26908;SDS011;14477;51.038;4.588;2022-08-30T13:15:31;3.20;;;1.33;;
26908;SDS011;14477;51.038;4.588;2022-08-30T13:18:23;2.37;;;1.20;;
26908;SDS011;14477;51.038;4.588;2022-08-30T13:23:36;4.55;;;1.42;;
26908;SDS011;14477;51.038;4.588;2022-08-30T13:26:04;1.90;;;1.40;;
26908;SDS011;14477;51.038;4.588;2022-08-30T13:28:40;2.20;;;1.30;;
26908;SDS011;14477;51.038;4.588;2022-08-30T13:31:07;1.38;;;1.23;;
26908;SDS011;14477;51.038;4.588;2022-08-30T13:33:33;2.20;;;1.30;;
26908;SDS011;14477;51.038;4.588;2022-08-30T13:35:59;1.77;;;1.13;;
26908;SDS011;14477;51.038;4.588;2022-08-30T13:38:25;1.90;;;1.50;;
26908;SDS011;14477;51.038;4.588;2022-08-30T13:40:50;2.33;;;1.70;;
26908;SDS011;14477;51.038;4.588;2022-08-30T13:43:16;1.63;;;1.52;;
26908;SDS011;14477;51.038;4.588;2022-08-30T13:45:41;1.50;;;1.40;;
26908;SDS011;14477;51.038;4.588;2022-08-30T13:48:07;3.95;;;1.50;;
26908;SDS011;14477;51.038;4.588;2022-08-30T13:50:34;1.93;;;1.43;;
26908;SDS011;14477;51.038;4.588;2022-08-30T13:53:00;1.77;;;1.27;;
26908;SDS011;14477;51.038;4.588;2022-08-30T13:55:26;2.35;;;1.50;;
26908;SDS011;14477;51.038;4.588;2022-08-30T13:57:52;4.37;;;1.43;;
26908;SDS011;14477;51.038;4.588;2022-08-30T14:00:18;2.35;;;1.60;;
26908;SDS011;14477;51.038;4.588;2022-08-30T14:02:46;2.90;;;1.65;;
26908;SDS011;14477;51.038;4.588;2022-08-30T14:05:12;2.67;;;1.40;;
26908;SDS011;14477;51.038;4.588;2022-08-30T14:07:38;1.90;;;1.30;;
26908;SDS011;14477;51.038;4.588;2022-08-30T14:10:04;3.17;;;1.40;;
26908;SDS011;14477;51.038;4.588;2022-08-30T14:12:31;2.50;;;1.40;;
26908;SDS011;14477;51.038;4.588;2022-08-30T14:14:56;2.73;;;1.13;;
26908;SDS011;14477;51.038;4.588;2022-08-30T14:17:22;1.30;;;1.20;;
26908;SDS011;14477;51.038;4.588;2022-08-30T14:19:54;1.90;;;1.30;;
26908;SDS011;14477;51.038;4.588;2022-08-30T14:22:19;1.60;;;1.13;;
26908;SDS011;14477;51.038;4.588;2022-08-30T14:24:45;2.97;;;1.20;;
26908;SDS011;14477;51.038;4.588;2022-08-30T14:27:11;1.70;;;1.13;;
26908;SDS011;14477;51.038;4.588;2022-08-30T14:29:36;2.17;;;1.25;;
26908;SDS011;14477;51.038;4.588;2022-08-30T14:32:02;1.67;;;1.20;;
26908;SDS011;14477;51.038;4.588;2022-08-30T14:34:28;1.50;;;1.13;;
26908;SDS011;14477;51.038;4.588;2022-08-30T14:36:55;1.55;;;1.20;;
26908;SDS011;14477;51.038;4.588;2022-08-30T14:39:21;2.47;;;1.13;;
26908;SDS011;14477;51.038;4.588;2022-08-30T14:41:49;2.35;;;1.10;;
26908;SDS011;14477;51.038;4.588;2022-08-30T14:44:17;1.92;;;1.20;;
26908;SDS011;14477;51.038;4.588;2022-08-30T14:46:44;1.80;;;1.20;;
26908;SDS011;14477;51.038;4.588;2022-08-30T14:49:10;1.53;;;1.13;;
26908;SDS011;14477;51.038;4.588;2022-08-30T14:51:37;1.52;;;1.20;;
26908;SDS011;14477;51.038;4.588;2022-08-30T14:54:04;2.15;;;1.20;;
26908;SDS011;14477;51.038;4.588;2022-08-30T14:56:30;2.17;;;1.20;;
26908;SDS011;14477;51.038;4.588;2022-08-30T14:58:55;1.60;;;1.07;;
26908;SDS011;14477;51.038;4.588;2022-08-30T15:01:27;1.60;;;1.23;;
26908;SDS011;14477;51.038;4.588;2022-08-30T15:03:54;3.35;;;1.20;;
26908;SDS011;14477;51.038;4.588;2022-08-30T15:06:20;1.97;;;1.10;;
26908;SDS011;14477;51.038;4.588;2022-08-30T15:08:46;2.90;;;1.10;;
26908;SDS011;14477;51.038;4.588;2022-08-30T15:11:13;1.55;;;1.05;;
26908;SDS011;14477;51.038;4.588;2022-08-30T15:13:40;1.48;;;1.17;;
26908;SDS011;14477;51.038;4.588;2022-08-30T15:16:19;2.92;;;1.23;;
26908;SDS011;14477;51.038;4.588;2022-08-30T15:18:49;4.50;;;1.20;;
26908;SDS011;14477;51.038;4.588;2022-08-30T15:21:24;2.00;;;1.10;;
26908;SDS011;14477;51.038;4.588;2022-08-30T15:23:56;1.55;;;1.15;;
26908;SDS011;14477;51.038;4.588;2022-08-30T15:26:23;2.97;;;1.23;;
26908;SDS011;14477;51.038;4.588;2022-08-30T15:28:49;1.58;;;1.10;;
26908;SDS011;14477;51.038;4.588;2022-08-30T15:31:20;1.30;;;1.20;;
26908;SDS011;14477;51.038;4.588;2022-08-30T15:33:48;2.00;;;1.20;;
26908;SDS011;14477;51.038;4.588;2022-08-30T15:36:14;1.63;;;1.30;;
26908;SDS011;14477;51.038;4.588;2022-08-30T15:38:40;2.63;;;1.40;;
26908;SDS011;14477;51.038;4.588;2022-08-30T15:41:07;1.77;;;1.23;;
26908;SDS011;14477;51.038;4.588;2022-08-30T15:43:34;2.67;;;1.30;;
26908;SDS011;14477;51.038;4.588;2022-08-30T15:49:09;2.03;;;1.20;;
26908;SDS011;14477;51.038;4.588;2022-08-30T15:51:37;2.00;;;1.20;;
26908;SDS011;14477;51.038;4.588;2022-08-30T15:54:03;1.27;;;1.10;;
26908;SDS011;14477;51.038;4.588;2022-08-30T15:56:30;1.20;;;1.05;;
26908;SDS011;14477;51.038;4.588;2022-08-30T15:58:56;1.70;;;1.40;;
26908;SDS011;14477;51.038;4.588;2022-08-30T16:01:22;1.50;;;1.10;;
26908;SDS011;14477;51.038;4.588;2022-08-30T16:03:48;3.13;;;1.20;;
26908;SDS011;14477;51.038;4.588;2022-08-30T16:06:16;2.88;;;1.20;;
26908;SDS011;14477;51.038;4.588;2022-08-30T16:08:45;2.08;;;1.25;;
26908;SDS011;14477;51.038;4.588;2022-08-30T16:11:11;1.60;;;1.10;;
26908;SDS011;14477;51.038;4.588;2022-08-30T16:13:39;2.37;;;1.30;;
26908;SDS011;14477;51.038;4.588;2022-08-30T16:16:06;2.00;;;1.33;;
26908;SDS011;14477;51.038;4.588;2022-08-30T16:18:33;2.28;;;1.42;;
26908;SDS011;14477;51.038;4.588;2022-08-30T16:21:01;4.10;;;1.50;;
26908;SDS011;14477;51.038;4.588;2022-08-30T16:23:27;1.33;;;1.20;;
26908;SDS011;14477;51.038;4.588;2022-08-30T16:25:53;2.70;;;1.20;;
26908;SDS011;14477;51.038;4.588;2022-08-30T16:28:19;1.85;;;1.20;;
26908;SDS011;14477;51.038;4.588;2022-08-30T16:30:45;1.90;;;1.20;;
26908;SDS011;14477;51.038;4.588;2022-08-30T16:33:10;3.30;;;1.30;;
26908;SDS011;14477;51.038;4.588;2022-08-30T16:35:36;1.98;;;1.02;;
26908;SDS011;14477;51.038;4.588;2022-08-30T16:38:02;3.03;;;1.20;;
26908;SDS011;14477;51.038;4.588;2022-08-30T16:40:28;1.60;;;1.07;;